createdAt,value
2023-12-17T00:01:17.111Z,98.28
2023-12-17T00:03:45.115Z,99.88
2023-12-17T00:06:12.793Z,98.75
2023-12-17T00:08:39.732Z,100.00
2023-12-17T00:11:06.763Z,99.97
2023-12-17T00:13:35.886Z,99.97
2023-12-17T00:16:03.350Z,99.79
2023-12-17T00:18:30.215Z,99.98
2023-12-17T00:20:57.291Z,100.00
2023-12-17T00:23:24.064Z,100.00
2023-12-17T00:25:50.983Z,100.00
2023-12-17T00:28:17.784Z,100.00
2023-12-17T00:30:47.370Z,100.00
2023-12-17T00:33:14.729Z,100.00
2023-12-17T00:35:41.486Z,100.00
2023-12-17T00:38:08.323Z,100.00
2023-12-17T00:40:35.032Z,100.00
2023-12-17T00:43:02.288Z,100.00
2023-12-17T00:45:29.647Z,100.00
2023-12-17T00:47:58.418Z,100.00
2023-12-17T00:50:25.854Z,100.00
2023-12-17T00:52:52.655Z,100.00
2023-12-17T00:55:20.205Z,100.00
2023-12-17T00:57:47.497Z,100.00
2023-12-17T01:00:15.785Z,100.00
2023-12-17T01:02:46.304Z,100.00
2023-12-17T01:05:15.206Z,100.00
2023-12-17T01:07:42.895Z,100.00
2023-12-17T01:10:10.427Z,100.00
2023-12-17T01:12:37.147Z,100.00
2023-12-17T01:15:05.205Z,100.00
2023-12-17T01:17:32.786Z,100.00
2023-12-17T01:20:00.548Z,100.00
2023-12-17T01:22:31.293Z,100.00
2023-12-17T01:24:59.567Z,100.00
2023-12-17T01:27:26.990Z,100.00
2023-12-17T01:29:54.448Z,100.00
2023-12-17T01:32:21.181Z,100.00
2023-12-17T01:34:47.887Z,100.00
2023-12-17T01:37:14.554Z,100.00
2023-12-17T01:39:42.581Z,100.00
2023-12-17T01:42:10.075Z,100.00
2023-12-17T01:44:36.885Z,100.00
2023-12-17T01:47:06.882Z,100.00
2023-12-17T01:49:34.709Z,100.00
2023-12-17T01:52:02.383Z,100.00
2023-12-17T01:54:29.883Z,100.00
2023-12-17T01:56:58.933Z,100.00
2023-12-17T01:59:26.522Z,100.00
2023-12-17T02:01:54.471Z,100.00
2023-12-17T02:04:22.311Z,99.67
2023-12-17T02:06:49.183Z,98.06
2023-12-17T02:09:16.432Z,97.69
2023-12-17T02:11:43.157Z,97.59
2023-12-17T02:14:11.472Z,96.71
2023-12-17T02:16:38.555Z,96.21
2023-12-17T02:19:19.600Z,96.22
2023-12-17T02:21:54.704Z,96.49
2023-12-17T02:24:29.368Z,96.66
2023-12-17T02:26:56.176Z,96.00
2023-12-17T02:29:26.560Z,96.16
2023-12-17T02:31:57.508Z,96.20
2023-12-17T02:34:24.696Z,96.47
2023-12-17T02:36:51.668Z,96.30
2023-12-17T02:39:22.467Z,96.38
2023-12-17T02:41:54.711Z,96.07
2023-12-17T02:50:43.530Z,95.65
2023-12-17T02:53:11.020Z,96.07
2023-12-17T02:55:38.874Z,95.99
2023-12-17T02:58:07.511Z,95.80
2023-12-17T03:00:34.372Z,95.56
2023-12-17T03:03:01.771Z,95.73
2023-12-17T03:05:28.552Z,95.33
2023-12-17T03:07:56.119Z,94.86
2023-12-17T03:10:22.963Z,95.53
2023-12-17T03:12:49.702Z,97.41
2023-12-17T03:15:18.028Z,96.51
2023-12-17T03:18:08.648Z,96.56
2023-12-17T03:21:15.468Z,96.27
2023-12-17T03:23:42.298Z,95.94
2023-12-17T03:26:09.089Z,95.78
2023-12-17T03:28:36.692Z,96.32
2023-12-17T03:31:05.106Z,96.55
2023-12-17T03:33:32.165Z,96.44
2023-12-17T03:35:58.964Z,96.78
2023-12-17T03:38:25.653Z,96.58
2023-12-17T03:40:52.445Z,96.43
2023-12-17T03:43:19.931Z,97.53
2023-12-17T03:45:47.459Z,97.28
2023-12-17T03:48:16.449Z,96.91
2023-12-17T03:50:46.726Z,98.47
2023-12-17T03:53:16.966Z,97.64
2023-12-17T03:55:44.297Z,96.88
2023-12-17T03:58:11.648Z,95.57
2023-12-17T04:00:38.947Z,96.08
2023-12-17T04:03:06.243Z,97.20
2023-12-17T04:05:37.497Z,96.11
2023-12-17T04:08:08.166Z,95.45
2023-12-17T04:10:35.090Z,96.21
2023-12-17T04:13:01.845Z,95.60
2023-12-17T04:15:28.720Z,95.17
2023-12-17T04:17:55.830Z,95.05
2023-12-17T04:20:22.683Z,95.92
2023-12-17T04:22:50.983Z,96.06
2023-12-17T04:25:17.635Z,96.97
2023-12-17T04:27:44.640Z,96.36
2023-12-17T04:30:13.109Z,96.25
2023-12-17T04:32:39.971Z,96.74
2023-12-17T04:35:07.381Z,96.21
2023-12-17T04:37:34.580Z,95.71
2023-12-17T04:40:02.723Z,97.00
2023-12-17T04:42:31.045Z,97.11
2023-12-17T04:44:59.435Z,97.08
2023-12-17T04:47:26.207Z,95.98
2023-12-17T04:49:52.854Z,95.50
2023-12-17T04:52:22.195Z,97.37
2023-12-17T04:54:48.813Z,95.32
2023-12-17T04:57:17.274Z,95.72
2023-12-17T04:59:44.226Z,93.33
2023-12-17T05:02:10.875Z,93.96
2023-12-17T05:04:37.628Z,94.48
2023-12-17T05:07:04.778Z,94.03
2023-12-17T05:09:31.452Z,94.26
2023-12-17T05:11:58.167Z,94.84
2023-12-17T05:14:26.324Z,94.76
2023-12-17T05:16:53.583Z,95.90
2023-12-17T05:19:31.612Z,95.52
2023-12-17T05:21:58.902Z,97.73
2023-12-17T05:24:26.498Z,96.29
2023-12-17T05:26:56.264Z,97.05
2023-12-17T05:29:23.705Z,94.63
2023-12-17T05:31:54.991Z,96.91
2023-12-17T05:34:23.382Z,95.32
2023-12-17T05:36:50.914Z,93.77
2023-12-17T05:39:18.368Z,93.04
2023-12-17T05:41:46.325Z,93.72
2023-12-17T05:44:14.106Z,93.53
2023-12-17T05:46:41.697Z,94.52
2023-12-17T05:49:10.606Z,94.85
2023-12-17T05:51:37.928Z,96.10
2023-12-17T05:54:05.140Z,96.22
2023-12-17T05:56:32.746Z,96.49
2023-12-17T05:59:00.204Z,97.08
2023-12-17T06:01:27.545Z,96.99
2023-12-17T06:03:55.130Z,94.08
2023-12-17T06:08:53.932Z,93.88
2023-12-17T06:11:23.580Z,93.65
2023-12-17T06:13:51.021Z,93.41
2023-12-17T06:16:18.311Z,92.34
2023-12-17T06:18:45.912Z,92.32
2023-12-17T06:21:24.354Z,92.20
2023-12-17T06:23:52.324Z,92.67
2023-12-17T06:26:20.116Z,91.85
2023-12-17T06:28:47.381Z,90.42
2023-12-17T06:31:18.200Z,89.80
2023-12-17T06:33:45.686Z,90.37
2023-12-17T06:36:13.817Z,91.16
2023-12-17T06:38:42.757Z,90.21
2023-12-17T06:41:10.052Z,89.26
2023-12-17T06:43:38.494Z,89.13
2023-12-17T06:46:08.422Z,90.61
2023-12-17T06:48:35.345Z,91.09
2023-12-17T06:51:03.469Z,90.83
2023-12-17T06:53:31.096Z,91.92
2023-12-17T06:55:59.754Z,90.95
2023-12-17T06:58:26.729Z,90.89
2023-12-17T07:00:54.020Z,90.07
2023-12-17T07:03:21.379Z,90.76
2023-12-17T07:05:49.030Z,91.01
2023-12-17T07:08:16.514Z,91.82
2023-12-17T07:10:43.714Z,93.17
2023-12-17T07:13:15.730Z,93.13
2023-12-17T07:15:42.963Z,92.55
2023-12-17T07:18:10.502Z,92.94
2023-12-17T07:20:37.764Z,93.08
2023-12-17T07:23:04.991Z,94.33
2023-12-17T07:25:32.632Z,95.22
2023-12-17T07:28:00.084Z,95.56
2023-12-17T07:30:32.281Z,93.05
2023-12-17T07:32:59.908Z,96.01
2023-12-17T07:35:27.443Z,94.93
2023-12-17T07:37:54.718Z,95.66
2023-12-17T07:40:22.225Z,95.52
2023-12-17T07:42:49.634Z,97.14
2023-12-17T07:45:17.001Z,95.90
2023-12-17T07:47:46.810Z,93.45
2023-12-17T07:50:17.554Z,93.93
2023-12-17T07:52:44.958Z,94.03
2023-12-17T07:55:12.191Z,94.96
2023-12-17T07:57:40.117Z,95.16
2023-12-17T08:00:08.071Z,95.02
2023-12-17T08:02:35.329Z,93.63
2023-12-17T08:05:04.756Z,91.46
2023-12-17T08:07:32.200Z,94.33
2023-12-17T08:09:59.083Z,92.68
2023-12-17T08:12:26.753Z,90.40
2023-12-17T08:14:54.150Z,91.94
2023-12-17T08:17:21.345Z,91.01
2023-12-17T08:19:48.523Z,92.76
2023-12-17T08:22:20.185Z,92.12
2023-12-17T08:24:47.475Z,93.98
2023-12-17T08:27:14.863Z,93.35
2023-12-17T08:29:42.492Z,91.52
2023-12-17T08:32:10.352Z,91.23
2023-12-17T08:34:37.622Z,92.21
2023-12-17T08:37:05.197Z,93.66
2023-12-17T08:39:39.675Z,90.96
2023-12-17T08:42:07.638Z,89.15
2023-12-17T08:44:35.460Z,91.70
2023-12-17T08:47:02.614Z,88.87
2023-12-17T08:49:30.130Z,89.34
2023-12-17T08:51:57.444Z,88.01
2023-12-17T08:54:24.773Z,88.16
2023-12-17T08:56:53.898Z,87.63
2023-12-17T08:59:21.606Z,86.83
2023-12-17T09:01:48.966Z,87.45
2023-12-17T09:04:16.344Z,86.79
2023-12-17T09:06:43.795Z,88.89
2023-12-17T09:09:11.548Z,88.19
2023-12-17T09:11:38.715Z,86.66
2023-12-17T09:14:07.572Z,87.93
2023-12-17T09:16:35.754Z,86.72
2023-12-17T09:19:03.370Z,87.57
2023-12-17T09:21:30.970Z,86.83
2023-12-17T09:23:58.561Z,88.10
2023-12-17T09:26:26.184Z,86.57
2023-12-17T09:28:53.422Z,85.99
2023-12-17T09:31:22.846Z,85.58
2023-12-17T09:33:50.398Z,86.75
2023-12-17T09:36:17.767Z,84.98
2023-12-17T09:38:45.396Z,83.95
2023-12-17T09:41:12.809Z,86.88
2023-12-17T09:43:43.566Z,83.54
2023-12-17T09:46:11.188Z,82.22
2023-12-17T09:48:39.985Z,83.32
2023-12-17T09:51:09.158Z,85.64
2023-12-17T09:53:40.230Z,86.48
2023-12-17T09:56:08.980Z,85.81
2023-12-17T09:58:35.695Z,82.87
2023-12-17T10:01:03.281Z,82.50
2023-12-17T10:03:31.479Z,83.53
2023-12-17T10:06:00.654Z,83.68
2023-12-17T10:08:28.157Z,82.74
2023-12-17T10:10:58.461Z,81.87
2023-12-17T10:13:25.729Z,84.46
2023-12-17T10:15:57.972Z,82.97
2023-12-17T10:18:25.537Z,83.47
2023-12-17T10:20:52.862Z,84.76
2023-12-17T10:23:21.600Z,82.46
2023-12-17T10:25:59.546Z,84.69
2023-12-17T10:28:26.941Z,81.74
2023-12-17T10:30:54.863Z,83.20
2023-12-17T10:33:27.293Z,82.85
2023-12-17T10:35:55.528Z,83.56
2023-12-17T10:38:24.896Z,83.58
2023-12-17T10:40:52.520Z,83.53
2023-12-17T10:43:20.955Z,83.13
2023-12-17T10:45:50.225Z,83.30
2023-12-17T10:48:21.316Z,86.19
2023-12-17T10:50:49.997Z,85.02
2023-12-17T10:53:16.764Z,81.67
2023-12-17T10:55:44.929Z,84.77
2023-12-17T10:58:20.824Z,84.44
2023-12-17T11:00:47.933Z,85.15
2023-12-17T11:03:15.580Z,87.16
2023-12-17T11:05:55.287Z,88.97
2023-12-17T11:08:23.711Z,86.18
2023-12-17T11:10:54.692Z,85.05
2023-12-17T11:13:21.901Z,85.28
2023-12-17T11:15:48.646Z,85.38
2023-12-17T11:18:16.312Z,86.09
2023-12-17T11:20:43.956Z,85.54
2023-12-17T11:23:11.610Z,84.78
2023-12-17T11:25:40.423Z,85.90
2023-12-17T11:28:09.265Z,84.90
2023-12-17T11:30:36.877Z,83.93
2023-12-17T11:33:04.298Z,85.14
2023-12-17T11:35:32.026Z,85.61
2023-12-17T11:37:59.394Z,83.84
2023-12-17T11:40:28.468Z,83.02
2023-12-17T11:43:02.937Z,85.54
2023-12-17T11:45:36.072Z,85.09
2023-12-17T11:48:10.612Z,82.88
2023-12-17T11:50:45.512Z,85.04
2023-12-17T11:53:14.719Z,85.48
2023-12-17T11:55:46.448Z,88.14
2023-12-17T11:58:14.196Z,86.85
2023-12-17T12:00:42.957Z,86.55
2023-12-17T12:03:10.360Z,86.42
2023-12-17T12:05:37.775Z,84.47
2023-12-17T12:08:05.748Z,84.70
2023-12-17T12:10:33.307Z,85.56
2023-12-17T12:13:04.018Z,88.01
2023-12-17T12:15:30.838Z,87.73
2023-12-17T12:17:59.969Z,86.92
2023-12-17T12:20:37.222Z,86.45
2023-12-17T12:23:09.933Z,86.74
2023-12-17T12:25:37.351Z,89.43
2023-12-17T12:28:04.139Z,91.97
2023-12-17T12:30:31.989Z,90.55
2023-12-17T12:33:11.485Z,91.20
2023-12-17T12:35:38.887Z,91.41
2023-12-17T12:38:21.205Z,89.39
2023-12-17T12:40:49.213Z,87.84
2023-12-17T12:43:16.635Z,86.68
2023-12-17T12:45:44.385Z,89.25
2023-12-17T12:48:24.637Z,89.54
2023-12-17T12:50:52.853Z,87.66
2023-12-17T12:53:26.191Z,90.45
2023-12-17T12:55:55.075Z,88.38
2023-12-17T12:58:22.293Z,86.95
2023-12-17T13:00:50.168Z,90.19
2023-12-17T13:03:17.806Z,91.34
2023-12-17T13:05:46.528Z,89.69
2023-12-17T13:08:13.296Z,88.85
2023-12-17T13:10:40.175Z,89.04
2023-12-17T13:13:07.274Z,88.29
2023-12-17T13:15:35.442Z,89.67
2023-12-17T13:18:02.902Z,91.47
2023-12-17T13:20:29.762Z,90.66
2023-12-17T13:22:58.070Z,89.27
2023-12-17T13:25:24.925Z,89.30
2023-12-17T13:27:51.625Z,91.48
2023-12-17T13:30:18.736Z,89.33
2023-12-17T13:32:46.135Z,89.84
2023-12-17T13:35:13.183Z,90.65
2023-12-17T13:37:40.057Z,91.83
2023-12-17T13:40:14.409Z,90.52
2023-12-17T13:42:41.446Z,89.59
2023-12-17T13:45:11.281Z,90.29
2023-12-17T13:47:38.915Z,90.18
2023-12-17T13:50:07.220Z,90.14
2023-12-17T13:52:34.743Z,87.24
2023-12-17T13:55:02.015Z,87.50
2023-12-17T13:57:30.798Z,89.23
2023-12-17T13:59:58.445Z,86.18
2023-12-17T14:02:25.843Z,87.13
2023-12-17T14:04:53.261Z,87.20
2023-12-17T14:07:21.208Z,87.40
2023-12-17T14:09:48.371Z,86.66
2023-12-17T14:12:15.885Z,84.85
2023-12-17T14:14:44.566Z,86.85
2023-12-17T14:17:11.923Z,86.05
2023-12-17T14:19:39.249Z,87.46
2023-12-17T14:22:06.609Z,87.42
2023-12-17T14:24:34.595Z,89.60
2023-12-17T14:27:01.663Z,87.93
2023-12-17T14:29:29.698Z,88.02
2023-12-17T14:31:58.174Z,87.94
2023-12-17T14:34:28.191Z,88.43
2023-12-17T14:36:55.472Z,88.28
2023-12-17T14:39:22.820Z,90.94
2023-12-17T14:41:50.466Z,90.93
2023-12-17T14:44:17.741Z,92.65
2023-12-17T14:46:45.043Z,93.33
2023-12-17T14:49:13.959Z,92.64
2023-12-17T14:51:41.641Z,91.28
2023-12-17T14:54:09.145Z,93.12
2023-12-17T14:56:36.993Z,94.23
2023-12-17T14:59:04.003Z,92.50
2023-12-17T15:01:35.118Z,93.46
2023-12-17T15:04:04.747Z,92.71
2023-12-17T15:06:34.093Z,92.40
2023-12-17T15:09:01.813Z,92.61
2023-12-17T15:11:29.823Z,95.20
2023-12-17T15:13:57.317Z,95.65
2023-12-17T15:16:24.738Z,94.87
2023-12-17T15:18:52.067Z,97.76
2023-12-17T15:21:19.529Z,97.81
2023-12-17T15:23:48.859Z,97.23
2023-12-17T15:26:16.124Z,99.88
2023-12-17T15:28:45.596Z,100.00
2023-12-17T15:31:19.222Z,97.75
2023-12-17T15:33:49.834Z,97.57
2023-12-17T15:36:20.418Z,98.75
2023-12-17T15:38:49.349Z,97.78
2023-12-17T15:41:19.852Z,96.77
2023-12-17T15:43:47.392Z,97.79
2023-12-17T15:46:21.901Z,100.00
2023-12-17T15:48:49.507Z,100.00
2023-12-17T15:51:18.616Z,98.85
2023-12-17T15:53:46.121Z,99.57
2023-12-17T15:56:14.873Z,97.73
2023-12-17T15:58:41.705Z,99.24
2023-12-17T16:01:09.083Z,97.07
2023-12-17T16:03:38.406Z,98.99
2023-12-17T16:06:09.045Z,100.00
2023-12-17T16:08:35.745Z,98.95
2023-12-17T16:11:03.035Z,97.60
2023-12-17T16:13:31.449Z,98.21
2023-12-17T16:15:58.679Z,98.99
2023-12-17T16:18:26.427Z,97.95
2023-12-17T16:20:54.167Z,98.20
2023-12-17T16:23:21.515Z,97.80
2023-12-17T16:25:48.462Z,96.97
2023-12-17T16:28:15.208Z,96.27
2023-12-17T16:30:44.672Z,97.63
2023-12-17T16:33:12.686Z,97.13
2023-12-17T16:35:40.271Z,95.98
2023-12-17T16:38:07.499Z,97.79
2023-12-17T16:40:34.488Z,96.34
2023-12-17T16:43:04.600Z,98.01
2023-12-17T16:45:31.570Z,98.77
2023-12-17T16:47:59.833Z,96.58
2023-12-17T16:50:26.732Z,97.33
2023-12-17T16:52:53.529Z,96.97
2023-12-17T16:55:20.541Z,96.50
2023-12-17T16:57:47.621Z,98.21
2023-12-17T17:00:15.691Z,95.58
2023-12-17T17:02:42.784Z,97.15
2023-12-17T17:05:12.156Z,94.67
2023-12-17T17:07:38.870Z,92.84
2023-12-17T17:10:06.711Z,91.55
2023-12-17T17:12:33.399Z,91.99
2023-12-17T17:15:00.924Z,90.63
2023-12-17T17:17:28.456Z,89.46
2023-12-17T17:19:56.304Z,90.74
2023-12-17T17:22:25.437Z,88.19
2023-12-17T17:24:52.210Z,88.73
2023-12-17T17:27:18.960Z,86.81
2023-12-17T17:29:45.964Z,85.45
2023-12-17T17:32:13.640Z,87.67
2023-12-17T17:34:40.987Z,86.72
2023-12-17T17:37:08.251Z,86.83
2023-12-17T17:39:36.569Z,86.54
2023-12-17T17:42:03.615Z,86.22
2023-12-17T17:44:30.513Z,85.40
2023-12-17T17:46:57.190Z,85.50
2023-12-17T17:49:24.464Z,86.30
2023-12-17T17:51:51.537Z,85.91
2023-12-17T17:54:19.152Z,86.54
2023-12-17T17:56:49.654Z,87.13
2023-12-17T17:59:16.487Z,87.08
2023-12-17T18:01:43.261Z,88.20
2023-12-17T18:04:09.956Z,86.77
2023-12-17T18:06:36.784Z,87.28
2023-12-17T18:09:03.988Z,87.08
2023-12-17T18:11:30.745Z,86.42
2023-12-17T18:13:58.814Z,86.95
2023-12-17T18:16:25.773Z,86.20
2023-12-17T18:18:52.570Z,87.05
2023-12-17T18:21:19.896Z,87.40
2023-12-17T18:23:48.122Z,87.00
2023-12-17T18:26:21.315Z,86.91
2023-12-17T18:28:48.129Z,87.73
2023-12-17T18:31:16.326Z,89.38
2023-12-17T18:33:43.562Z,90.21
2023-12-17T18:36:10.634Z,87.44
2023-12-17T18:38:37.275Z,89.38
2023-12-17T18:41:04.229Z,88.62
2023-12-17T18:43:30.966Z,88.20
2023-12-17T18:45:57.660Z,87.35
2023-12-17T18:48:25.955Z,89.69
2023-12-17T18:50:52.763Z,87.70
2023-12-17T18:53:19.610Z,86.85
2023-12-17T18:55:46.373Z,87.94
2023-12-17T18:58:13.041Z,91.32
2023-12-17T19:00:39.787Z,92.15
2023-12-17T19:03:06.610Z,92.10
2023-12-17T19:05:34.872Z,92.01
2023-12-17T19:08:01.591Z,93.42
2023-12-17T19:10:28.559Z,96.51
2023-12-17T19:12:55.194Z,93.97
2023-12-17T19:15:21.954Z,95.49
2023-12-17T19:17:48.863Z,94.71
2023-12-17T19:20:15.852Z,92.15
2023-12-17T19:22:44.381Z,93.03
2023-12-17T19:25:11.565Z,94.21
2023-12-17T19:27:38.526Z,94.61
2023-12-17T19:30:06.414Z,94.25
2023-12-17T19:32:33.317Z,93.71
2023-12-17T19:35:00.073Z,93.11
2023-12-17T19:37:27.383Z,96.06
2023-12-17T19:39:55.436Z,94.61
2023-12-17T19:42:22.703Z,93.46
2023-12-17T19:44:50.002Z,94.99
2023-12-17T19:47:16.700Z,95.26
2023-12-17T19:49:44.494Z,97.19
2023-12-17T19:52:11.834Z,94.22
2023-12-17T19:54:39.737Z,92.68
2023-12-17T19:57:09.342Z,94.92
2023-12-17T19:59:36.673Z,94.88
2023-12-17T20:02:03.413Z,93.67
2023-12-17T20:04:30.309Z,94.41
2023-12-17T20:06:57.433Z,92.93
2023-12-17T20:09:24.810Z,94.38
2023-12-17T20:11:52.225Z,92.79
2023-12-17T20:14:20.836Z,93.86
2023-12-17T20:16:49.921Z,92.70
2023-12-17T20:19:17.460Z,94.11
2023-12-17T20:21:44.695Z,94.09
2023-12-17T20:24:12.595Z,93.57
2023-12-17T20:26:39.690Z,91.02
2023-12-17T20:29:08.436Z,91.66
2023-12-17T20:31:37.221Z,92.10
2023-12-17T20:34:04.034Z,91.20
2023-12-17T20:36:31.429Z,92.25
2023-12-17T20:38:58.867Z,93.14
2023-12-17T20:41:26.723Z,92.78
2023-12-17T20:43:54.314Z,92.21
2023-12-17T20:46:21.876Z,92.90
2023-12-17T20:48:51.151Z,92.07
2023-12-17T20:51:20.794Z,91.12
2023-12-17T20:53:50.545Z,93.03
2023-12-17T20:56:18.106Z,92.68
2023-12-17T20:58:45.157Z,91.34
2023-12-17T21:01:12.418Z,92.70
2023-12-17T21:03:40.007Z,91.38
2023-12-17T21:06:11.775Z,91.08
2023-12-17T21:08:38.830Z,90.11
2023-12-17T21:11:05.643Z,90.03
2023-12-17T21:13:32.522Z,87.96
2023-12-17T21:15:59.788Z,88.28
2023-12-17T21:18:27.440Z,89.01
2023-12-17T21:20:54.711Z,87.32
2023-12-17T21:23:23.306Z,87.14
2023-12-17T21:25:51.069Z,86.69
2023-12-17T21:28:18.252Z,86.34
2023-12-17T21:30:45.485Z,86.53
2023-12-17T21:33:13.176Z,88.21
2023-12-17T21:35:40.443Z,88.09
2023-12-17T21:38:07.613Z,88.41
2023-12-17T21:40:38.926Z,87.11
2023-12-17T21:43:06.108Z,87.90
2023-12-17T21:45:33.326Z,86.92
2023-12-17T21:48:03.537Z,87.06
2023-12-17T21:50:30.262Z,87.81
2023-12-17T21:52:57.602Z,89.84
2023-12-17T21:55:25.582Z,90.57
2023-12-17T21:57:54.542Z,90.21
2023-12-17T22:00:21.301Z,88.64
2023-12-17T22:02:48.793Z,89.74
2023-12-17T22:05:22.572Z,91.09
2023-12-17T22:07:50.123Z,89.74
2023-12-17T22:10:17.512Z,91.12
2023-12-17T22:12:45.579Z,90.98
2023-12-17T22:15:14.411Z,92.95
2023-12-17T22:17:42.400Z,90.95
2023-12-17T22:20:11.262Z,91.16
2023-12-17T22:22:38.538Z,91.10
2023-12-17T22:25:06.872Z,91.74
2023-12-17T22:27:34.524Z,90.73
2023-12-17T22:30:01.860Z,88.73
2023-12-17T22:32:30.847Z,89.04
2023-12-17T22:34:58.576Z,88.38
2023-12-17T22:37:28.688Z,88.22
2023-12-17T22:39:55.926Z,90.20
2023-12-17T22:42:23.176Z,90.69
2023-12-17T22:44:50.721Z,89.20
2023-12-17T22:47:17.953Z,90.02
2023-12-17T22:49:47.832Z,92.18
2023-12-17T22:52:14.635Z,91.34
2023-12-17T22:54:42.073Z,92.56
2023-12-17T22:57:09.790Z,92.25
2023-12-17T22:59:39.176Z,91.17
2023-12-17T23:02:06.605Z,90.52
2023-12-17T23:04:34.185Z,89.27
2023-12-17T23:07:02.943Z,88.33
2023-12-17T23:09:30.046Z,88.19
2023-12-17T23:11:57.798Z,89.63
2023-12-17T23:14:25.097Z,89.17
2023-12-17T23:16:52.348Z,89.85
2023-12-17T23:19:20.093Z,91.01
2023-12-17T23:21:47.632Z,89.02
2023-12-17T23:24:16.529Z,90.22
2023-12-17T23:26:43.215Z,88.46
2023-12-17T23:29:09.884Z,91.97
2023-12-17T23:31:37.135Z,93.18
2023-12-17T23:34:04.666Z,93.32
2023-12-17T23:36:32.142Z,93.28
2023-12-17T23:38:59.868Z,92.82
2023-12-17T23:41:29.126Z,92.78
2023-12-17T23:43:56.446Z,93.47
2023-12-17T23:46:23.774Z,94.75
2023-12-17T23:48:51.351Z,94.80
2023-12-17T23:51:21.666Z,93.90
2023-12-17T23:53:49.134Z,91.96
2023-12-17T23:56:16.787Z,92.59
2023-12-17T23:58:45.913Z,92.17
